sensor_id;sensor_type;location;lat;lon;timestamp;pressure;altitude;pressure_sealevel;temperature;humidity
70684;BME280;58263;48.146;11.440;2022-09-14T00:00:21;94978.72;;;19.06;68.61
70684;BME280;58263;48.146;11.440;2022-09-14T00:02:47;94980.41;;;19.16;68.17
70684;BME280;58263;48.146;11.440;2022-09-14T00:05:12;94983.91;;;19.17;68.56
70684;BME280;58263;48.146;11.440;2022-09-14T00:07:38;94973.06;;;19.03;68.65
70684;BME280;58263;48.146;11.440;2022-09-14T00:10:03;94972.97;;;19.08;68.65
70684;BME280;58263;48.146;11.440;2022-09-14T00:12:29;94969.97;;;18.96;68.81
70684;BME280;58263;48.146;11.440;2022-09-14T00:14:54;94975.09;;;18.97;69.28
70684;BME280;58263;48.146;11.440;2022-09-14T00:17:19;94975.47;;;19.04;68.68
70684;BME280;58263;48.146;11.440;2022-09-14T00:19:45;94983.84;;;19.08;68.98
70684;BME280;58263;48.146;11.440;2022-09-14T00:22:10;94982.75;;;19.09;69.71
70684;BME280;58263;48.146;11.440;2022-09-14T00:24:35;94981.22;;;19.03;69.42
70684;BME280;58263;48.146;11.440;2022-09-14T00:27:01;94982.63;;;19.00;69.39
70684;BME280;58263;48.146;11.440;2022-09-14T00:29:29;94981.31;;;18.98;69.74
70684;BME280;58263;48.146;11.440;2022-09-14T00:31:55;94986.88;;;18.92;70.00
70684;BME280;58263;48.146;11.440;2022-09-14T00:34:20;94979.31;;;18.89;70.12
70684;BME280;58263;48.146;11.440;2022-09-14T00:36:48;94985.06;;;18.88;70.42
70684;BME280;58263;48.146;11.440;2022-09-14T00:39:16;94976.06;;;18.87;70.05
70684;BME280;58263;48.146;11.440;2022-09-14T00:41:44;94975.06;;;18.83;70.67
70684;BME280;58263;48.146;11.440;2022-09-14T00:46:43;94967.41;;;18.85;70.85
70684;BME280;58263;48.146;11.440;2022-09-14T00:49:13;94952.81;;;18.81;70.89
70684;BME280;58263;48.146;11.440;2022-09-14T00:51:44;94955.53;;;18.81;70.24
70684;BME280;58263;48.146;11.440;2022-09-14T00:54:11;94934.63;;;18.82;70.52
70684;BME280;58263;48.146;11.440;2022-09-14T00:56:36;94929.97;;;18.82;70.48
70684;BME280;58263;48.146;11.440;2022-09-14T00:59:08;94924.84;;;18.81;70.40
70684;BME280;58263;48.146;11.440;2022-09-14T01:01:34;94923.84;;;18.77;70.78
70684;BME280;58263;48.146;11.440;2022-09-14T01:04:00;94916.59;;;18.86;70.06
70684;BME280;58263;48.146;11.440;2022-09-14T01:09:35;94921.91;;;18.77;70.79
70684;BME280;58263;48.146;11.440;2022-09-14T01:12:41;94910.66;;;18.70;71.37
70684;BME280;58263;48.146;11.440;2022-09-14T01:15:23;94890.53;;;18.71;71.95
70684;BME280;58263;48.146;11.440;2022-09-14T01:18:12;94893.97;;;18.63;72.20
70684;BME280;58263;48.146;11.440;2022-09-14T01:25:59;94888.34;;;18.59;71.70
70684;BME280;58263;48.146;11.440;2022-09-14T01:28:42;94874.75;;;18.59;71.38
70684;BME280;58263;48.146;11.440;2022-09-14T01:31:15;94882.50;;;18.66;71.32
70684;BME280;58263;48.146;11.440;2022-09-14T01:33:54;94888.63;;;18.71;71.53
70684;BME280;58263;48.146;11.440;2022-09-14T01:36:22;94886.13;;;18.75;70.26
70684;BME280;58263;48.146;11.440;2022-09-14T01:38:50;94873.84;;;18.64;70.89
70684;BME280;58263;48.146;11.440;2022-09-14T01:41:21;94874.44;;;18.61;70.87
70684;BME280;58263;48.146;11.440;2022-09-14T01:43:51;94867.63;;;18.49;71.54
70684;BME280;58263;48.146;11.440;2022-09-14T01:46:54;94862.81;;;18.46;71.94
70684;BME280;58263;48.146;11.440;2022-09-14T01:49:43;94854.75;;;18.55;70.97
70684;BME280;58263;48.146;11.440;2022-09-14T01:52:14;94869.94;;;18.56;70.99
70684;BME280;58263;48.146;11.440;2022-09-14T01:54:53;94874.25;;;18.57;71.57
70684;BME280;58263;48.146;11.440;2022-09-14T01:57:27;94876.06;;;18.62;71.75
70684;BME280;58263;48.146;11.440;2022-09-14T01:59:57;94875.97;;;18.67;70.90
70684;BME280;58263;48.146;11.440;2022-09-14T02:03:45;94870.72;;;18.70;70.84
70684;BME280;58263;48.146;11.440;2022-09-14T02:05:47;94871.84;;;18.69;71.21
70684;BME280;58263;48.146;11.440;2022-09-14T02:08:13;94868.59;;;18.67;70.66
70684;BME280;58263;48.146;11.440;2022-09-14T02:10:38;94876.28;;;18.65;70.83
70684;BME280;58263;48.146;11.440;2022-09-14T02:13:04;94876.06;;;18.62;70.87
70684;BME280;58263;48.146;11.440;2022-09-14T02:15:31;94870.00;;;18.65;71.15
70684;BME280;58263;48.146;11.440;2022-09-14T02:17:56;94878.78;;;18.62;71.18
70684;BME280;58263;48.146;11.440;2022-09-14T02:20:30;94880.41;;;18.63;71.83
70684;BME280;58263;48.146;11.440;2022-09-14T02:22:56;94880.09;;;18.64;71.71
70684;BME280;58263;48.146;11.440;2022-09-14T02:25:21;94878.09;;;18.56;71.24
70684;BME280;58263;48.146;11.440;2022-09-14T02:27:47;94883.22;;;18.57;71.90
70684;BME280;58263;48.146;11.440;2022-09-14T02:30:12;94870.13;;;18.59;71.36
70684;BME280;58263;48.146;11.440;2022-09-14T02:32:46;94874.44;;;18.61;71.43
70684;BME280;58263;48.146;11.440;2022-09-14T02:41:48;94851.03;;;18.37;71.62
70684;BME280;58263;48.146;11.440;2022-09-14T02:44:42;94843.88;;;18.41;72.01
70684;BME280;58263;48.146;11.440;2022-09-14T02:47:13;94841.47;;;18.53;72.23
70684;BME280;58263;48.146;11.440;2022-09-14T02:52:21;94834.94;;;18.54;72.55
70684;BME280;58263;48.146;11.440;2022-09-14T02:55:08;94823.75;;;18.56;72.18
70684;BME280;58263;48.146;11.440;2022-09-14T02:58:06;94829.00;;;18.52;72.35
70684;BME280;58263;48.146;11.440;2022-09-14T03:00:37;94826.56;;;18.51;72.77
70684;BME280;58263;48.146;11.440;2022-09-14T03:03:05;94822.16;;;18.55;72.46
70684;BME280;58263;48.146;11.440;2022-09-14T03:05:31;94817.41;;;18.61;72.17
70684;BME280;58263;48.146;11.440;2022-09-14T03:07:57;94804.66;;;18.47;72.40
70684;BME280;58263;48.146;11.440;2022-09-14T03:10:22;94811.28;;;18.55;72.55
70684;BME280;58263;48.146;11.440;2022-09-14T03:12:48;94808.25;;;18.56;71.91
70684;BME280;58263;48.146;11.440;2022-09-14T03:15:13;94809.97;;;18.52;72.47
70684;BME280;58263;48.146;11.440;2022-09-14T03:17:39;94812.69;;;18.52;72.41
70684;BME280;58263;48.146;11.440;2022-09-14T03:20:08;94818.31;;;18.56;72.12
70684;BME280;58263;48.146;11.440;2022-09-14T03:22:34;94816.91;;;18.58;71.74
70684;BME280;58263;48.146;11.440;2022-09-14T03:25:00;94819.63;;;18.58;72.03
70684;BME280;58263;48.146;11.440;2022-09-14T03:27:25;94818.31;;;18.56;72.32
70684;BME280;58263;48.146;11.440;2022-09-14T03:29:50;94814.72;;;18.47;72.93
70684;BME280;58263;48.146;11.440;2022-09-14T03:32:16;94816.50;;;18.51;72.51
70684;BME280;58263;48.146;11.440;2022-09-14T03:34:41;94797.50;;;18.51;73.16
70684;BME280;58263;48.146;11.440;2022-09-14T03:37:06;94810.59;;;18.49;72.47
70684;BME280;58263;48.146;11.440;2022-09-14T03:39:32;94798.63;;;18.50;72.84
70684;BME280;58263;48.146;11.440;2022-09-14T03:41:57;94802.44;;;18.49;72.87
70684;BME280;58263;48.146;11.440;2022-09-14T03:44:22;94795.19;;;18.45;72.92
70684;BME280;58263;48.146;11.440;2022-09-14T03:46:48;94794.41;;;18.44;73.21
70684;BME280;58263;48.146;11.440;2022-09-14T03:49:13;94789.59;;;18.41;73.30
70684;BME280;58263;48.146;11.440;2022-09-14T03:51:38;94797.63;;;18.46;73.51
70684;BME280;58263;48.146;11.440;2022-09-14T03:54:03;94792.06;;;18.51;73.69
70684;BME280;58263;48.146;11.440;2022-09-14T03:56:29;94784.13;;;18.55;73.12
70684;BME280;58263;48.146;11.440;2022-09-14T03:58:55;94780.31;;;18.56;73.33
70684;BME280;58263;48.146;11.440;2022-09-14T04:01:21;94800.22;;;18.51;73.35
70684;BME280;58263;48.146;11.440;2022-09-14T04:03:47;94805.06;;;18.54;73.80
70684;BME280;58263;48.146;11.440;2022-09-14T04:06:14;94808.66;;;18.50;73.94
70684;BME280;58263;48.146;11.440;2022-09-14T04:08:41;94807.78;;;18.54;73.49
70684;BME280;58263;48.146;11.440;2022-09-14T04:11:14;94825.38;;;18.57;73.67
70684;BME280;58263;48.146;11.440;2022-09-14T04:13:40;94816.31;;;18.62;73.84
70684;BME280;58263;48.146;11.440;2022-09-14T04:16:05;94809.09;;;18.57;74.39
70684;BME280;58263;48.146;11.440;2022-09-14T04:18:31;94820.00;;;18.66;73.80
70684;BME280;58263;48.146;11.440;2022-09-14T04:20:58;94826.38;;;18.61;73.98
70684;BME280;58263;48.146;11.440;2022-09-14T04:23:24;94817.31;;;18.66;73.62
70684;BME280;58263;48.146;11.440;2022-09-14T04:25:50;94820.00;;;18.66;74.03
70684;BME280;58263;48.146;11.440;2022-09-14T04:28:15;94824.34;;;18.67;73.94
70684;BME280;58263;48.146;11.440;2022-09-14T04:30:41;94826.44;;;18.70;74.64
70684;BME280;58263;48.146;11.440;2022-09-14T04:33:06;94812.88;;;18.70;75.36
70684;BME280;58263;48.146;11.440;2022-09-14T04:35:32;94826.97;;;18.72;74.51
70684;BME280;58263;48.146;11.440;2022-09-14T04:37:57;94820.28;;;18.78;74.57
70684;BME280;58263;48.146;11.440;2022-09-14T04:40:22;94805.81;;;18.69;75.34
70684;BME280;58263;48.146;11.440;2022-09-14T04:42:47;94803.19;;;18.64;75.67
70684;BME280;58263;48.146;11.440;2022-09-14T04:45:13;94798.97;;;18.71;75.25
70684;BME280;58263;48.146;11.440;2022-09-14T04:47:38;94794.84;;;18.74;75.63
70684;BME280;58263;48.146;11.440;2022-09-14T04:50:04;94803.00;;;18.74;75.06
70684;BME280;58263;48.146;11.440;2022-09-14T04:52:29;94802.38;;;18.77;75.43
70684;BME280;58263;48.146;11.440;2022-09-14T04:54:55;94798.19;;;18.71;75.45
70684;BME280;58263;48.146;11.440;2022-09-14T04:57:20;94798.19;;;18.71;75.04
70684;BME280;58263;48.146;11.440;2022-09-14T04:59:45;94803.00;;;18.74;75.18
70684;BME280;58263;48.146;11.440;2022-09-14T05:02:10;94794.22;;;18.77;75.07
70684;BME280;58263;48.146;11.440;2022-09-14T05:04:36;94801.28;;;18.78;75.22
70684;BME280;58263;48.146;11.440;2022-09-14T05:07:01;94796.94;;;18.77;75.21
70684;BME280;58263;48.146;11.440;2022-09-14T05:09:26;94805.00;;;18.82;74.90
70684;BME280;58263;48.146;11.440;2022-09-14T05:11:52;94799.06;;;18.80;74.49
70684;BME280;58263;48.146;11.440;2022-09-14T05:14:17;94798.94;;;18.85;74.48
70684;BME280;58263;48.146;11.440;2022-09-14T05:16:43;94793.31;;;18.82;75.26
70684;BME280;58263;48.146;11.440;2022-09-14T05:19:11;94785.66;;;18.84;75.08
70684;BME280;58263;48.146;11.440;2022-09-14T05:21:37;94785.03;;;18.87;74.74
70684;BME280;58263;48.146;11.440;2022-09-14T05:24:13;94791.81;;;18.89;74.82
70684;BME280;58263;48.146;11.440;2022-09-14T05:26:40;94797.13;;;18.95;75.61
70684;BME280;58263;48.146;11.440;2022-09-14T05:29:05;94794.53;;;18.89;75.89
70684;BME280;58263;48.146;11.440;2022-09-14T05:31:31;94783.66;;;18.89;74.54
70684;BME280;58263;48.146;11.440;2022-09-14T05:33:57;94790.91;;;18.94;74.58
70684;BME280;58263;48.146;11.440;2022-09-14T05:36:23;94783.22;;;18.96;74.78
70684;BME280;58263;48.146;11.440;2022-09-14T05:38:48;94787.88;;;18.96;73.41
70684;BME280;58263;48.146;11.440;2022-09-14T05:41:14;94774.16;;;19.01;73.73
70684;BME280;58263;48.146;11.440;2022-09-14T05:43:40;94773.75;;;19.07;72.84
70684;BME280;58263;48.146;11.440;2022-09-14T05:46:09;94774.00;;;19.20;72.24
70684;BME280;58263;48.146;11.440;2022-09-14T05:48:36;94785.34;;;19.22;72.43
70684;BME280;58263;48.146;11.440;2022-09-14T05:51:06;94774.66;;;19.25;72.44
70684;BME280;58263;48.146;11.440;2022-09-14T05:53:32;94771.00;;;19.30;71.92
70684;BME280;58263;48.146;11.440;2022-09-14T05:56:11;94773.09;;;19.33;71.46
70684;BME280;58263;48.146;11.440;2022-09-14T05:58:39;94771.53;;;19.41;71.17
70684;BME280;58263;48.146;11.440;2022-09-14T06:01:09;94782.25;;;19.37;71.11
70684;BME280;58263;48.146;11.440;2022-09-14T06:03:35;94780.53;;;19.41;70.75
70684;BME280;58263;48.146;11.440;2022-09-14T06:06:02;94789.47;;;19.42;70.85
70684;BME280;58263;48.146;11.440;2022-09-14T06:08:28;94782.78;;;19.48;70.59
70684;BME280;58263;48.146;11.440;2022-09-14T06:10:53;94780.38;;;19.47;69.89
70684;BME280;58263;48.146;11.440;2022-09-14T06:13:18;94779.63;;;19.55;70.47
70684;BME280;58263;48.146;11.440;2022-09-14T06:15:44;94791.81;;;19.57;70.06
70684;BME280;58263;48.146;11.440;2022-09-14T06:18:09;94779.19;;;19.62;70.14
70684;BME280;58263;48.146;11.440;2022-09-14T06:20:34;94798.06;;;19.58;70.47
70684;BME280;58263;48.146;11.440;2022-09-14T06:22:59;94797.47;;;19.70;70.11
70684;BME280;58263;48.146;11.440;2022-09-14T06:25:25;94798.44;;;19.74;70.11
70684;BME280;58263;48.146;11.440;2022-09-14T06:27:53;94798.84;;;19.81;69.99
70684;BME280;58263;48.146;11.440;2022-09-14T06:30:19;94798.09;;;19.89;69.61
70684;BME280;58263;48.146;11.440;2022-09-14T06:32:44;94803.09;;;19.96;69.79
70684;BME280;58263;48.146;11.440;2022-09-14T06:35:10;94791.38;;;19.96;69.93
70684;BME280;58263;48.146;11.440;2022-09-14T06:37:35;94801.50;;;20.04;69.59
70684;BME280;58263;48.146;11.440;2022-09-14T06:40:01;94807.31;;;20.11;68.77
70684;BME280;58263;48.146;11.440;2022-09-14T06:42:28;94808.91;;;20.12;69.18
70684;BME280;58263;48.146;11.440;2022-09-14T06:44:53;94812.59;;;20.16;69.64
70684;BME280;58263;48.146;11.440;2022-09-14T06:47:18;94799.81;;;20.17;69.56
70684;BME280;58263;48.146;11.440;2022-09-14T06:49:44;94791.44;;;20.13;69.49
70684;BME280;58263;48.146;11.440;2022-09-14T06:52:09;94795.78;;;20.14;69.33
70684;BME280;58263;48.146;11.440;2022-09-14T06:54:34;94782.00;;;20.10;68.95
70684;BME280;58263;48.146;11.440;2022-09-14T06:57:00;94785.06;;;20.18;68.83
70684;BME280;58263;48.146;11.440;2022-09-14T06:59:25;94763.75;;;20.20;68.85
70684;BME280;58263;48.146;11.440;2022-09-14T07:01:50;94766.22;;;20.30;69.12
70684;BME280;58263;48.146;11.440;2022-09-14T07:04:16;94773.41;;;20.35;69.12
70684;BME280;58263;48.146;11.440;2022-09-14T07:06:48;94780.16;;;20.37;69.11
70684;BME280;58263;48.146;11.440;2022-09-14T07:09:15;94780.63;;;20.39;69.01
70684;BME280;58263;48.146;11.440;2022-09-14T07:11:41;94784.31;;;20.43;69.43
70684;BME280;58263;48.146;11.440;2022-09-14T07:14:06;94786.25;;;20.52;68.81
70684;BME280;58263;48.146;11.440;2022-09-14T07:16:33;94788.88;;;20.66;68.10
70684;BME280;58263;48.146;11.440;2022-09-14T07:19:00;94787.47;;;20.77;68.10
70684;BME280;58263;48.146;11.440;2022-09-14T07:21:27;94788.44;;;20.81;67.99
70684;BME280;58263;48.146;11.440;2022-09-14T07:23:53;94787.47;;;20.94;67.92
70684;BME280;58263;48.146;11.440;2022-09-14T07:26:22;94784.25;;;21.10;67.19
70684;BME280;58263;48.146;11.440;2022-09-14T07:28:49;94794.84;;;21.20;67.33
70684;BME280;58263;48.146;11.440;2022-09-14T07:31:17;94797.41;;;21.34;67.02
70684;BME280;58263;48.146;11.440;2022-09-14T07:33:44;94801.88;;;21.39;66.84
70684;BME280;58263;48.146;11.440;2022-09-14T07:36:10;94798.22;;;21.43;66.61
70684;BME280;58263;48.146;11.440;2022-09-14T07:38:37;94794.19;;;21.58;65.39
70684;BME280;58263;48.146;11.440;2022-09-14T07:41:02;94795.13;;;21.71;65.28
70684;BME280;58263;48.146;11.440;2022-09-14T07:43:28;94798.31;;;21.82;65.49
70684;BME280;58263;48.146;11.440;2022-09-14T07:45:54;94796.78;;;22.02;65.12
70684;BME280;58263;48.146;11.440;2022-09-14T07:48:19;94799.63;;;22.15;65.04
70684;BME280;58263;48.146;11.440;2022-09-14T07:50:45;94795.88;;;22.37;63.96
70684;BME280;58263;48.146;11.440;2022-09-14T07:53:10;94805.25;;;22.57;64.11
70684;BME280;58263;48.146;11.440;2022-09-14T07:55:39;94807.81;;;22.83;61.76
70684;BME280;58263;48.146;11.440;2022-09-14T07:58:05;94807.28;;;22.90;60.67
70684;BME280;58263;48.146;11.440;2022-09-14T08:00:30;94805.97;;;22.96;60.75
70684;BME280;58263;48.146;11.440;2022-09-14T08:02:56;94811.44;;;23.17;59.70
70684;BME280;58263;48.146;11.440;2022-09-14T08:05:23;94820.66;;;23.34;59.52
70684;BME280;58263;48.146;11.440;2022-09-14T08:07:55;94818.00;;;23.58;59.16
70684;BME280;58263;48.146;11.440;2022-09-14T08:10:21;94830.22;;;23.61;57.90
70684;BME280;58263;48.146;11.440;2022-09-14T08:12:51;94833.34;;;23.72;57.46
70684;BME280;58263;48.146;11.440;2022-09-14T08:15:18;94836.47;;;23.83;57.21
70684;BME280;58263;48.146;11.440;2022-09-14T08:17:43;94827.16;;;23.96;56.94
70684;BME280;58263;48.146;11.440;2022-09-14T08:20:09;94829.81;;;24.05;56.89
70684;BME280;58263;48.146;11.440;2022-09-14T08:22:34;94823.41;;;24.13;56.40
70684;BME280;58263;48.146;11.440;2022-09-14T08:24:59;94828.47;;;24.11;56.15
70684;BME280;58263;48.146;11.440;2022-09-14T08:27:25;94812.47;;;24.13;55.34
70684;BME280;58263;48.146;11.440;2022-09-14T08:29:50;94820.81;;;24.29;55.50
70684;BME280;58263;48.146;11.440;2022-09-14T08:32:15;94813.38;;;24.29;54.62
70684;BME280;58263;48.146;11.440;2022-09-14T08:34:40;94812.59;;;24.41;53.91
70684;BME280;58263;48.146;11.440;2022-09-14T08:37:06;94820.19;;;24.69;54.30
70684;BME280;58263;48.146;11.440;2022-09-14T08:39:31;94822.66;;;24.87;53.02
70684;BME280;58263;48.146;11.440;2022-09-14T08:41:58;94826.41;;;25.07;53.33
70684;BME280;58263;48.146;11.440;2022-09-14T08:44:42;94831.63;;;25.24;52.27
70684;BME280;58263;48.146;11.440;2022-09-14T08:47:12;94830.44;;;25.50;52.04
70684;BME280;58263;48.146;11.440;2022-09-14T08:49:47;94840.28;;;25.51;51.03
70684;BME280;58263;48.146;11.440;2022-09-14T08:52:38;94831.03;;;25.88;51.00
70684;BME280;58263;48.146;11.440;2022-09-14T09:01:11;94841.06;;;26.08;49.29
70684;BME280;58263;48.146;11.440;2022-09-14T09:11:47;94854.97;;;26.95;48.13
70684;BME280;58263;48.146;11.440;2022-09-14T09:16:49;94850.56;;;27.26;46.29
70684;BME280;58263;48.146;11.440;2022-09-14T09:19:27;94865.84;;;27.59;45.83
70684;BME280;58263;48.146;11.440;2022-09-14T09:21:55;94863.66;;;27.69;45.87
70684;BME280;58263;48.146;11.440;2022-09-14T09:24:37;94860.19;;;28.34;45.81
70684;BME280;58263;48.146;11.440;2022-09-14T09:27:10;94868.47;;;28.57;44.56
70684;BME280;58263;48.146;11.440;2022-09-14T09:29:36;94860.97;;;28.34;43.21
70684;BME280;58263;48.146;11.440;2022-09-14T09:32:03;94861.88;;;28.39;44.17
70684;BME280;58263;48.146;11.440;2022-09-14T09:34:30;94867.63;;;28.30;43.58
70684;BME280;58263;48.146;11.440;2022-09-14T09:36:55;94868.91;;;28.36;43.87
70684;BME280;58263;48.146;11.440;2022-09-14T09:39:24;94871.56;;;28.09;43.46
70684;BME280;58263;48.146;11.440;2022-09-14T09:41:59;94869.03;;;28.20;43.72
70684;BME280;58263;48.146;11.440;2022-09-14T09:44:25;94875.97;;;28.33;43.25
70684;BME280;58263;48.146;11.440;2022-09-14T09:46:53;94870.34;;;28.07;43.05
70684;BME280;58263;48.146;11.440;2022-09-14T09:49:29;94873.22;;;28.33;43.50
70684;BME280;58263;48.146;11.440;2022-09-14T09:51:55;94877.81;;;28.72;42.52
70684;BME280;58263;48.146;11.440;2022-09-14T09:54:31;94874.84;;;28.61;42.58
70684;BME280;58263;48.146;11.440;2022-09-14T09:56:59;94874.94;;;28.42;42.16
70684;BME280;58263;48.146;11.440;2022-09-14T09:59:39;94864.53;;;28.12;43.25
70684;BME280;58263;48.146;11.440;2022-09-14T10:02:20;94864.09;;;27.90;43.60
70684;BME280;58263;48.146;11.440;2022-09-14T10:05:02;94852.50;;;27.81;43.40
70684;BME280;58263;48.146;11.440;2022-09-14T10:07:30;94849.28;;;27.98;44.20
70684;BME280;58263;48.146;11.440;2022-09-14T10:12:23;94833.69;;;27.87;44.01
70684;BME280;58263;48.146;11.440;2022-09-14T10:14:49;94831.75;;;27.87;43.64
70684;BME280;58263;48.146;11.440;2022-09-14T10:17:25;94814.94;;;27.73;43.78
70684;BME280;58263;48.146;11.440;2022-09-14T10:19:52;94824.31;;;28.57;43.53
70684;BME280;58263;48.146;11.440;2022-09-14T10:22:30;94812.47;;;29.33;42.69
70684;BME280;58263;48.146;11.440;2022-09-14T10:25:01;94814.66;;;29.21;41.62
70684;BME280;58263;48.146;11.440;2022-09-14T10:27:38;94816.53;;;29.74;41.08
70684;BME280;58263;48.146;11.440;2022-09-14T10:30:15;94807.53;;;30.18;39.79
70684;BME280;58263;48.146;11.440;2022-09-14T10:32:46;94804.13;;;30.80;38.95
70684;BME280;58263;48.146;11.440;2022-09-14T10:35:14;94799.59;;;30.16;40.97
70684;BME280;58263;48.146;11.440;2022-09-14T10:37:59;94808.63;;;30.51;38.70
70684;BME280;58263;48.146;11.440;2022-09-14T10:40:34;94790.25;;;30.32;38.67
70684;BME280;58263;48.146;11.440;2022-09-14T10:43:15;94786.25;;;29.50;40.39
70684;BME280;58263;48.146;11.440;2022-09-14T10:45:55;94789.94;;;29.65;39.97
70684;BME280;58263;48.146;11.440;2022-09-14T10:48:33;94778.84;;;29.96;39.64
70684;BME280;58263;48.146;11.440;2022-09-14T10:59:49;94779.44;;;34.58;32.58
70684;BME280;58263;48.146;11.440;2022-09-14T11:05:06;94769.75;;;35.18;30.62
70684;BME280;58263;48.146;11.440;2022-09-14T11:16:57;94774.47;;;38.00;26.55
70684;BME280;58263;48.146;11.440;2022-09-14T11:25:03;94753.34;;;34.86;30.29
70684;BME280;58263;48.146;11.440;2022-09-14T11:30:15;94742.53;;;39.85;23.77
70684;BME280;58263;48.146;11.440;2022-09-14T11:33:05;94739.13;;;39.64;24.08
70684;BME280;58263;48.146;11.440;2022-09-14T11:35:41;94741.53;;;40.69;23.02
70684;BME280;58263;48.146;11.440;2022-09-14T11:38:28;94731.41;;;40.59;22.72
70684;BME280;58263;48.146;11.440;2022-09-14T11:43:42;94726.25;;;40.57;22.79
70684;BME280;58263;48.146;11.440;2022-09-14T11:46:29;94723.47;;;40.05;23.92
70684;BME280;58263;48.146;11.440;2022-09-14T11:49:03;94710.94;;;38.63;24.51
70684;BME280;58263;48.146;11.440;2022-09-14T11:51:38;94713.94;;;39.18;24.69
70684;BME280;58263;48.146;11.440;2022-09-14T11:54:17;94706.69;;;40.41;23.77
70684;BME280;58263;48.146;11.440;2022-09-14T11:56:47;94699.78;;;40.67;22.57
70684;BME280;58263;48.146;11.440;2022-09-14T12:17:48;94675.63;;;38.82;25.22
70684;BME280;58263;48.146;11.440;2022-09-14T12:20:42;94687.28;;;37.98;25.67
70684;BME280;58263;48.146;11.440;2022-09-14T12:26:09;94685.53;;;36.91;27.21
70684;BME280;58263;48.146;11.440;2022-09-14T12:35:56;94700.66;;;35.95;28.33
70684;BME280;58263;48.146;11.440;2022-09-14T12:59:19;94690.59;;;30.88;38.37
70684;BME280;58263;48.146;11.440;2022-09-14T13:04:27;94689.84;;;30.31;39.15
70684;BME280;58263;48.146;11.440;2022-09-14T13:06:55;94689.91;;;30.39;39.67
70684;BME280;58263;48.146;11.440;2022-09-14T13:09:23;94682.91;;;30.00;40.36
70684;BME280;58263;48.146;11.440;2022-09-14T13:11:59;94687.63;;;29.99;40.89
70684;BME280;58263;48.146;11.440;2022-09-14T13:14:28;94684.84;;;29.96;40.96
70684;BME280;58263;48.146;11.440;2022-09-14T13:16:58;94679.81;;;29.67;41.27
70684;BME280;58263;48.146;11.440;2022-09-14T13:19:29;94665.44;;;29.51;41.12
70684;BME280;58263;48.146;11.440;2022-09-14T13:21:57;94673.25;;;29.42;42.11
70684;BME280;58263;48.146;11.440;2022-09-14T13:24:34;94670.91;;;29.44;42.26
70684;BME280;58263;48.146;11.440;2022-09-14T13:27:01;94665.00;;;29.15;42.42
70684;BME280;58263;48.146;11.440;2022-09-14T13:29:28;94653.91;;;29.08;42.83
70684;BME280;58263;48.146;11.440;2022-09-14T13:31:55;94653.22;;;28.84;42.72
70684;BME280;58263;48.146;11.440;2022-09-14T13:34:24;94645.94;;;29.03;42.59
70684;BME280;58263;48.146;11.440;2022-09-14T13:36:51;94648.16;;;28.90;42.55
70684;BME280;58263;48.146;11.440;2022-09-14T13:39:34;94630.78;;;28.86;42.65
70684;BME280;58263;48.146;11.440;2022-09-14T13:42:01;94642.47;;;29.09;41.57
70684;BME280;58263;48.146;11.440;2022-09-14T13:44:32;94637.38;;;29.11;41.89
70684;BME280;58263;48.146;11.440;2022-09-14T13:47:02;94635.38;;;28.74;43.45
70684;BME280;58263;48.146;11.440;2022-09-14T13:49:29;94648.28;;;28.66;42.25
70684;BME280;58263;48.146;11.440;2022-09-14T13:54:41;94647.63;;;28.50;43.26
70684;BME280;58263;48.146;11.440;2022-09-14T13:57:12;94653.84;;;28.43;43.93
70684;BME280;58263;48.146;11.440;2022-09-14T14:00:15;94649.25;;;28.24;44.46
70684;BME280;58263;48.146;11.440;2022-09-14T14:02:49;94646.03;;;27.95;44.32
70684;BME280;58263;48.146;11.440;2022-09-14T14:05:40;94655.03;;;27.69;44.67
70684;BME280;58263;48.146;11.440;2022-09-14T14:08:25;94651.13;;;27.47;45.25
70684;BME280;58263;48.146;11.440;2022-09-14T14:10:51;94668.69;;;27.39;46.53
70684;BME280;58263;48.146;11.440;2022-09-14T14:13:29;94667.00;;;27.34;46.50
70684;BME280;58263;48.146;11.440;2022-09-14T14:21:23;94667.34;;;26.54;47.58
70684;BME280;58263;48.146;11.440;2022-09-14T14:26:50;94659.91;;;26.55;46.39
70684;BME280;58263;48.146;11.440;2022-09-14T14:29:16;94662.34;;;26.24;46.85
70684;BME280;58263;48.146;11.440;2022-09-14T14:31:42;94653.22;;;26.36;46.58
70684;BME280;58263;48.146;11.440;2022-09-14T14:34:22;94639.66;;;26.27;46.98
70684;BME280;58263;48.146;11.440;2022-09-14T14:36:48;94652.09;;;26.21;46.69
70684;BME280;58263;48.146;11.440;2022-09-14T14:39:19;94653.00;;;25.93;46.71
70684;BME280;58263;48.146;11.440;2022-09-14T14:41:45;94659.56;;;26.05;46.98
70684;BME280;58263;48.146;11.440;2022-09-14T14:44:20;94660.00;;;25.91;47.31
70684;BME280;58263;48.146;11.440;2022-09-14T14:46:46;94667.97;;;25.80;47.43
70684;BME280;58263;48.146;11.440;2022-09-14T14:49:14;94666.31;;;25.59;47.27
70684;BME280;58263;48.146;11.440;2022-09-14T14:51:39;94669.91;;;25.47;47.18
70684;BME280;58263;48.146;11.440;2022-09-14T14:54:05;94661.59;;;25.60;46.59
70684;BME280;58263;48.146;11.440;2022-09-14T14:56:31;94662.66;;;25.39;46.85
70684;BME280;58263;48.146;11.440;2022-09-14T14:58:56;94669.81;;;25.44;47.35
70684;BME280;58263;48.146;11.440;2022-09-14T15:01:21;94666.63;;;25.42;47.55
70684;BME280;58263;48.146;11.440;2022-09-14T15:03:47;94670.78;;;25.36;47.46
70684;BME280;58263;48.146;11.440;2022-09-14T15:06:20;94680.72;;;25.12;48.33
70684;BME280;58263;48.146;11.440;2022-09-14T15:08:52;94669.59;;;24.92;48.04
70684;BME280;58263;48.146;11.440;2022-09-14T15:11:18;94674.75;;;24.94;48.37
70684;BME280;58263;48.146;11.440;2022-09-14T15:13:46;94681.63;;;24.88;48.62
70684;BME280;58263;48.146;11.440;2022-09-14T15:16:13;94703.56;;;24.88;49.68